• Join FlightAware (Why Join?)
  • Login
  • US Flag 
12:33PM EDT


 

Airport Tracker/Info


-or-


 

Live Flight TrackerFlight Track Log ✈ UAL5822 ✈ 30-Apr-2013 ✈ KMHT - KORD

Flight Track Log - Related Links

Times and Time Zones

All times are in EDT time to prevent confusion due to time zone crossing. See the UAL5822 flight status page for this flight to view local times or setup timezone preferences in your user account.

Time Position Orientation Groundspeed Altitude Reporting Facility
EDT Latitude Longitude Course Direction KTS MPH feet Rate Location/Type
07:09AM 42.9500 -71.4167 334° Northwest 173 199 1,000  Level KA90
07:11AM 43.0297 -71.4689 334° Northwest 218 251 4,200 1,740 Climbing Boston Center
07:12AM 43.0678 -71.5392 307° West 240 276 5,900 2,220 Climbing Boston Center
07:13AM 43.1125 -71.6322 303° West 268 308 8,700 2,100 Climbing Boston Center
07:14AM 43.1233 -71.7233 279° West 263 303 10,200 1,260 Climbing Boston Center
07:15AM 43.1386 -71.8483 280° West 294 338 11,300 960 Climbing Boston Center
07:16AM 43.1517 -71.9592 279° West 323 372 12,200 1,080 Climbing Boston Center
07:17AM 43.1711 -72.1042 280° West 344 396 13,500 1,260 Climbing Boston Center
07:18AM 43.1839 -72.2236 278° West 355 409 14,800 1,440 Climbing Boston Center
07:19AM 43.2047 -72.3717 281° West 355 409 16,400 1,380 Climbing Boston Center
07:20AM 43.2214 -72.5056 280° West 355 409 17,600 900 Climbing Boston Center
07:21AM 43.2317 -72.6425 276° West 355 409 18,300 780 Climbing Boston Center
07:22AM 43.2314 -72.7850 270° West 366 421 19,200 900 Climbing Boston Center
07:23AM 43.2308 -72.9358 270° West 378 435 20,100 900 Climbing Boston Center
07:24AM 43.2281 -73.0842 269° West 391 450 21,100 900 Climbing Boston Center
07:25AM 43.2272 -73.2350 270° West 391 450 22,000 840 Climbing Boston Center
07:26AM 43.2219 -73.3689 267° West 396 456 22,900 900 Climbing Boston Center
07:27AM 43.2206 -73.5200 269° West 396 456 23,900 900 Climbing Boston Center
07:28AM 43.2211 -73.6739 270° West 401 461 24,800 900 Climbing Boston Center
07:29AM 43.2192 -73.8389 269° West 401 461 25,700 900 Climbing Boston Center
07:30AM 43.2150 -73.9928 268° West 401 461 26,600 780 Climbing Boston Center
07:31AM 43.2089 -74.1350 267° West 401 461 27,500 900 Climbing Boston Center
07:32AM 43.1917 -74.3111 262° West 446 513 28,600 1,020 Climbing Boston Center
07:33AM 43.1767 -74.4558 262° West 425 489 29,600 900 Climbing Boston Center
07:34AM 43.1636 -74.6006 263° West 404 465 30,500 900 Climbing Boston Center
07:35AM 43.1483 -74.7453 262° West 392 451 31,400 900 Climbing Boston Center
07:36AM 43.1328 -74.8897 262° West 387 445 32,400 900 Climbing Boston Center
07:37AM 43.1189 -75.0372 263° West 387 445 33,300 900 Climbing Boston Center
07:38AM 43.1031 -75.1817 262° West 387 445 34,300 900 Climbing Boston Center
07:39AM 43.0872 -75.3231 261° West 387 445 35,200 780 Climbing Boston Center
07:40AM 43.0731 -75.4675 262° West 387 445 35,900 360 Climbing Boston Center
07:41AM 43.0592 -75.5944 262° West 387 445 36,000  Climbing Boston Center
07:42AM 43.0444 -75.7472 263° West 392 451 36,000  Level Boston Center
07:43AM 43.0272 -75.8997 261° West 399 459 36,000  Level Boston Center
07:45AM 42.9950 -76.1717 261° West 415 478 36,000  Level Cleveland Center
07:46AM 42.9778 -76.3233 261° West 415 478 36,000  Level Cleveland Center
07:47AM 42.9606 -76.4778 261° West 415 478 36,000  Level Cleveland Center
07:48AM 42.9428 -76.6292 261° West 415 478 36,000  Level Cleveland Center
07:49AM 42.9250 -76.7806 261° West 409 471 36,000  Level Cleveland Center
07:50AM 42.9047 -76.9322 260° West 409 471 36,000  Level Cleveland Center
07:51AM 42.8783 -77.0839 257° West 409 471 36,000  Level Cleveland Center
07:52AM 42.8325 -77.2225 246° West 415 478 36,000  Level Cleveland Center
07:53AM 42.7883 -77.3633 247° West 415 478 36,000  Level Cleveland Center
07:54AM 42.7422 -77.5017 246° West 408 470 36,000  Level Cleveland Center
07:55AM 42.6978 -77.6422 247° West 403 464 36,000  Level Cleveland Center
07:56AM 42.6492 -77.7828 245° Southwest 403 464 36,000  Level Cleveland Center
07:57AM 42.5967 -77.9375 245° Southwest 403 464 36,000  Level Cleveland Center
07:58AM 42.5497 -78.0747 245° Southwest 403 464 36,000  Level Cleveland Center
07:59AM 42.5025 -78.2147 245° Southwest 403 464 36,000  Level Cleveland Center
08:00AM 42.4553 -78.3542 245° Southwest 403 464 36,000  Level Cleveland Center
08:01AM 42.4081 -78.4939 245° Southwest 403 464 36,000  Level Cleveland Center
08:02AM 42.3603 -78.6331 245° Southwest 403 464 36,000  Level Cleveland Center
08:03AM 42.3125 -78.7722 245° Southwest 403 464 36,000  Level Cleveland Center
08:04AM 42.2625 -78.9111 244° Southwest 403 464 36,000  Level Cleveland Center
08:05AM 42.2144 -79.0497 245° Southwest 408 470 36,000  Level Cleveland Center
08:06AM 42.1706 -79.1908 247° West 408 470 36,000  Level Cleveland Center
08:07AM 42.1347 -79.3372 252° West 408 470 36,000  Level Cleveland Center
08:08AM 42.0944 -79.4833 250° West 408 470 36,000  Level Cleveland Center
08:09AM 42.0581 -79.6267 251° West 413 475 36,000  Level Cleveland Center
08:10AM 42.0217 -79.7669 251° West 407 468 36,000  Level Cleveland Center
08:11AM 41.9831 -79.9128 250° West 407 468 36,000  Level Cleveland Center
08:12AM 41.9628 -80.0442 258° West 401 461 36,000  Level Cleveland Center
08:13AM 41.9425 -80.1894 259° West 401 461 36,000  Level Cleveland Center
08:14AM 41.9181 -80.3517 259° West 396 456 36,000  Level Cleveland Center
08:15AM 41.8994 -80.5022 261° West 407 468 36,000  Level Cleveland Center
08:16AM 41.8744 -80.6500 257° West 413 475 36,000  Level Cleveland Center
08:17AM 41.8533 -80.7978 259° West 413 475 36,000  Level Cleveland Center
08:18AM 41.8322 -80.9481 259° West 413 475 36,000  Level Cleveland Center
08:19AM 41.8108 -81.1042 260° West 413 475 36,000  Level Cleveland Center
08:20AM 41.7850 -81.2569 257° West 418 481 36,000  Level Cleveland Center
08:21AM 41.7653 -81.4128 260° West 425 489 36,000  Level Cleveland Center
08:22AM 41.7411 -81.5656 258° West 430 495 36,000  Level Cleveland Center
08:23AM 41.7189 -81.7181 259° West 430 495 36,000  Level Cleveland Center
08:24AM 41.6942 -81.8733 258° West 430 495 36,000  Level Cleveland Center
08:25AM 41.6694 -82.0258 258° West 430 495 36,000  Level Cleveland Center
08:26AM 41.6467 -82.1781 259° West 430 495 36,000  Level Cleveland Center
08:27AM 41.6214 -82.3303 258° West 430 495 36,000  Level Cleveland Center
08:28AM 41.5961 -82.4850 258° West 430 495 36,000  Level Cleveland Center
08:29AM 41.5728 -82.6178 257° West 425 489 36,000  Level Cleveland Center
08:30AM 41.5472 -82.7694 257° West 430 495 36,000  Level Cleveland Center
08:31AM 41.4883 -82.9033 240° Southwest 425 489 36,000  Level Cleveland Center
08:32AM 41.4292 -83.0425 240° Southwest 430 495 36,000  Level Cleveland Center
08:33AM 41.3736 -83.1925 244° Southwest 425 489 36,000  Level Cleveland Center
08:34AM 41.3892 -83.3344 278° West 389 448 36,000  Level Cleveland Center
08:35AM 41.4703 -83.4236 321° Northwest 340 391 36,000  Level Cleveland Center
08:36AM 41.5667 -83.4861 334° Northwest 346 398 36,000  Level Cleveland Center
08:37AM 41.6544 -83.5569 329° Northwest 363 418 36,000  Level Cleveland Center
08:38AM 41.6886 -83.6892 289° West 357 411 36,000  Level Cleveland Center
08:39AM 41.6411 -83.8231 245° Southwest 338 389 36,000  Level Cleveland Center
08:40AM 41.5508 -83.9183 218° Southwest 360 414 36,000  Level Cleveland Center
08:41AM 41.4369 -83.9597 195° South 375 432 36,000 -120 Level Cleveland Center
08:42AM 41.3339 -83.9903 193° South 395 455 35,800 -840 Descending Cleveland Center
08:43AM 41.2161 -84.0228 192° South 412 474 34,400 -900 Descending Cleveland Center
08:44AM 41.1464 -84.1211 227° Southwest 401 461 34,000 -240 Descending Cleveland Center
08:45AM 41.1481 -84.2675 271° West 327 376 34,000  Level Cleveland Center
08:46AM 41.1622 -84.4339 277° West 394 453 34,000  Level Chicago Center
08:47AM 41.1722 -84.5867 275° West 411 473 34,000  Level Chicago Center
08:48AM 41.1836 -84.7422 276° West 421 484 34,000  Level Chicago Center
08:49AM 41.1936 -84.9025 275° West 433 498 34,000  Level Chicago Center
08:50AM 41.2086 -85.0650 277° West 441 507 34,000 -600 Level Chicago Center
08:51AM 41.2208 -85.2292 276° West 443 510 32,800 -1,260 Descending Chicago Center
08:52AM 41.2333 -85.3881 276° West 436 502 31,400 -1,440 Descending Chicago Center
08:53AM 41.2458 -85.5472 276° West 432 497 29,900 -1,500 Descending Chicago Center
08:54AM 41.2583 -85.7097 276° West 438 504 28,400 -1,560 Descending Chicago Center
08:55AM 41.2733 -85.9050 276° West 441 507 26,700 -1,500 Descending Chicago Center
08:56AM 41.2897 -86.0661 278° West 439 505 25,300 -1,020 Descending Chicago Center
08:58AM 41.3292 -86.2214 289° West 441 507 24,700 -540 Descending Chicago Center
08:59AM 41.3664 -86.3703 288° West 428 493 24,200 -1,320 Descending Chicago Center
09:00AM 41.4031 -86.5158 289° West 418 481 22,100 -2,280 Descending Chicago Center
09:01AM 41.4361 -86.6503 288° West 388 447 19,600 -2,580 Descending Chicago Center
09:02AM 41.4722 -86.7969 288° West 367 422 16,800 -2,520 Descending Chicago Center
09:03AM 41.5033 -86.9239 288° West 362 417 14,400 -2,160 Descending Chicago Center
09:04AM 41.5333 -87.0436 289° West 347 399 12,400 -1,200 Descending Chicago Center
09:05AM 41.5617 -87.1625 288° West 341 392 12,000 -240 Descending Chicago Center
09:06AM 41.6167 -87.3000 298° West 350 403 12,000 -120 Level Chicago TRACON
09:07AM 41.6833 -87.4000 312° West 348 400 11,800 -720 Descending Chicago TRACON
09:08AM 41.7333 -87.5000 304° West 299 344 10,600 -1,560 Descending Chicago TRACON
09:09AM 41.7833 -87.5667 315° West 279 321 8,700 -1,740 Descending Chicago TRACON
09:10AM 41.8333 -87.6500 309° West 266 306 7,200 -900 Descending Chicago TRACON
09:11AM 41.8833 -87.6833 334° Northwest 240 276 7,000 -120 Descending Chicago TRACON
09:12AM 41.9500 -87.7000 349° North 224 258 7,000 -300 Level Chicago TRACON
09:13AM 42.0167 -87.6667 20° North 223 257 6,400 -900 Descending Chicago TRACON
09:14AM 42.0667 -87.6333 26° Northeast 217 250 5,300 -1,080 Descending Chicago TRACON
09:15AM 42.1167 -87.6000 26° Northeast 218 251 4,400 -720 Descending Chicago TRACON
09:16AM 42.1500 -87.6333 323° Northwest 159 183 4,000 -300 Descending Chicago TRACON
09:16AM 42.1558 -87.6511 294° West 187 215 4,000  Level Chicago Center
09:17AM 42.1508 -87.7108 264° West 154 177 4,000 -60 Level Chicago Center
09:18AM 42.1294 -87.7553 237° Southwest 148 170 3,900 -360 Descending Chicago Center
09:19AM 42.1000 -87.7667 196° South 150 173 3,500 -780 Descending Chicago TRACON
09:20AM 42.0833 -87.8000 236° Southwest 141 162 2,700 -780 Descending Chicago TRACON
09:21AM 42.0500 -87.8333 217° Southwest 130 150 2,000 -660 Descending Chicago TRACON
09:22AM 42.0167 -87.8667 217° Southwest 120 138 1,400 -600 Descending Chicago TRACON
09:24AM 41.9817 -87.9067 304° West  Level Estimated